Time;durP1;ratioP1;P1;durP2;ratioP2;P2;SDS_P1;SDS_P2;PMS_P1;PMS_P2;Temp;Humidity;BMP_temperature;BMP_pressure;BME280_temperature;BME280_humidity;BME280_pressure;Samples;Min_cycle;Max_cycle;Signal;HPM_P1;HPM_P2
2021/03/11 00:00:21;;;;;;;36.67;25.40;;;5.80;1.00;;;;;;5076243;28;20182;-58
2021/03/11 00:02:47;;;;;;;45.67;28.17;;;5.90;1.00;;;;;;5069747;28;20249;-58
2021/03/11 00:05:14;;;;;;;38.50;24.80;;;5.90;1.00;;;;;;5070798;28;20502;-58
2021/03/11 00:07:40;;;;;;;39.20;26.40;;;5.80;1.00;;;;;;5082466;28;20218;-58
2021/03/11 00:10:09;;;;;;;40.73;24.47;;;5.80;1.00;;;;;;5072043;28;20449;-58
2021/03/11 00:12:35;;;;;;;42.23;27.10;;;5.80;1.00;;;;;;5060361;28;20442;-59
2021/03/11 00:15:01;;;;;;;37.53;24.83;;;;;;;;;;5075081;28;20495;-58
2021/03/11 00:17:26;;;;;;;40.37;24.47;;;5.90;1.00;;;;;;5073281;28;20214;-58
2021/03/11 00:19:52;;;;;;;44.30;25.00;;;5.80;1.00;;;;;;5085004;28;20472;-59
2021/03/11 00:22:18;;;;;;;39.40;24.37;;;5.90;1.00;;;;;;5091036;28;20711;-58
2021/03/11 00:24:44;;;;;;;34.77;22.77;;;5.90;1.00;;;;;;5078281;28;20289;-58
2021/03/11 00:27:09;;;;;;;31.77;22.20;;;5.90;1.00;;;;;;5085812;28;20560;-59
2021/03/11 00:29:35;;;;;;;40.13;25.00;;;5.90;1.00;;;;;;5073777;28;20440;-57
2021/03/11 00:32:00;;;;;;;35.20;24.57;;;5.90;1.00;;;;;;5070659;28;20198;-58
2021/03/11 00:34:26;;;;;;;36.90;23.73;;;5.80;1.00;;;;;;5073483;28;20679;-58
2021/03/11 00:36:52;;;;;;;42.20;24.37;;;5.90;1.00;;;;;;5056182;28;20676;-57
2021/03/11 00:39:18;;;;;;;42.17;25.33;;;6.00;1.00;;;;;;5070821;28;20524;-58
2021/03/11 00:41:44;;;;;;;45.20;25.33;;;6.10;1.00;;;;;;5073640;28;20434;-60
2021/03/11 00:44:10;;;;;;;41.43;24.13;;;6.10;1.00;;;;;;5085397;28;20452;-58
2021/03/11 00:46:35;;;;;;;37.23;24.30;;;6.10;1.00;;;;;;5075772;28;20560;-60
2021/03/11 00:49:01;;;;;;;37.60;23.27;;;6.10;1.00;;;;;;5087433;28;20305;-58
2021/03/11 00:51:26;;;;;;;35.80;22.53;;;6.10;1.00;;;;;;5081179;28;20186;-57
2021/03/11 00:53:52;;;;;;;41.17;24.93;;;6.20;1.00;;;;;;5071490;28;20186;-58
2021/03/11 00:56:17;;;;;;;39.93;24.97;;;6.20;1.00;;;;;;5074659;28;20178;-58
2021/03/11 00:58:43;;;;;;;37.87;22.20;;;6.70;1.00;;;;;;5070329;28;20186;-58
2021/03/11 01:01:09;;;;;;;39.87;23.60;;;6.10;1.00;;;;;;5075752;28;20535;-58
2021/03/11 01:03:34;;;;;;;38.43;24.07;;;6.10;1.00;;;;;;5090524;28;20187;-59
2021/03/11 01:06:00;;;;;;;39.60;23.60;;;6.10;1.00;;;;;;5073621;28;20207;-59
2021/03/11 01:08:25;;;;;;;34.00;22.57;;;6.10;1.00;;;;;;5081310;28;20249;-58
2021/03/11 01:10:52;;;;;;;37.90;23.20;;;6.00;1.00;;;;;;5086542;28;20201;-57
2021/03/11 01:13:17;;;;;;;39.83;24.80;;;6.20;1.00;;;;;;5080500;28;20203;-57
2021/03/11 01:15:44;;;;;;;38.97;25.07;;;6.10;1.00;;;;;;5075169;28;21005;-56
2021/03/11 01:18:11;;;;;;;38.73;24.43;;;6.10;1.00;;;;;;5074947;28;20183;-59
2021/03/11 01:20:37;;;;;;;34.07;22.07;;;6.10;1.00;;;;;;5085550;28;20448;-57
2021/03/11 01:23:03;;;;;;;37.47;23.17;;;6.10;1.00;;;;;;5073027;28;20559;-57
2021/03/11 01:25:29;;;;;;;43.00;22.70;;;6.10;1.00;;;;;;5079340;28;20482;-58
2021/03/11 01:27:54;;;;;;;40.10;23.93;;;6.00;1.00;;;;;;5085851;28;21050;-57
2021/03/11 01:30:21;;;;;;;41.70;24.60;;;6.10;1.00;;;;;;5086898;28;20179;-59
2021/03/11 01:32:46;;;;;;;34.27;22.90;;;6.10;1.00;;;;;;5081060;28;20192;-58
2021/03/11 01:35:13;;;;;;;35.57;22.73;;;6.00;1.00;;;;;;5078431;28;20510;-59
2021/03/11 01:37:38;;;;;;;34.07;21.50;;;6.00;1.00;;;;;;5075354;28;20175;-57
2021/03/11 01:40:05;;;;;;;40.57;23.87;;;6.10;1.00;;;;;;5089905;28;20493;-57
2021/03/11 01:42:31;;;;;;;37.97;23.43;;;6.00;1.00;;;;;;5082972;28;20176;-58
2021/03/11 01:44:56;;;;;;;37.67;21.60;;;5.90;1.00;;;;;;5074558;28;20439;-58
2021/03/11 01:47:22;;;;;;;38.93;24.40;;;6.00;1.00;;;;;;5072062;28;20240;-57
2021/03/11 01:49:47;;;;;;;35.97;23.23;;;6.00;1.00;;;;;;5088149;28;20243;-56
2021/03/11 01:52:13;;;;;;;36.20;23.40;;;6.10;1.00;;;;;;5078032;28;20649;-57
2021/03/11 01:54:39;;;;;;;35.33;21.53;;;;;;;;;;5088885;28;20209;-58
2021/03/11 01:57:05;;;;;;;36.23;22.20;;;6.10;1.00;;;;;;5082985;28;20186;-57
2021/03/11 01:59:31;;;;;;;33.80;19.57;;;6.10;1.00;;;;;;5082108;28;20452;-57
2021/03/11 02:01:57;;;;;;;40.00;22.40;;;6.10;1.00;;;;;;5087023;28;20452;-57
2021/03/11 02:04:23;;;;;;;38.53;23.03;;;6.10;1.00;;;;;;5073747;28;20183;-58
2021/03/11 02:06:50;;;;;;;32.73;20.37;;;6.10;1.00;;;;;;5088305;28;20556;-57
2021/03/11 02:09:16;;;;;;;34.17;21.80;;;6.10;1.00;;;;;;5084083;28;20211;-58
2021/03/11 02:12:05;;;;;;;32.07;21.10;;;6.10;1.00;;;;;;5090178;28;20472;-56
2021/03/11 02:14:54;;;;;;;37.43;21.23;;;6.20;1.00;;;;;;5078494;28;20182;-57
2021/03/11 02:17:26;;;;;;;35.03;21.27;;;6.20;1.00;;;;;;5073000;28;20784;-60
2021/03/11 02:20:01;;;;;;;34.27;21.10;;;6.20;1.00;;;;;;5078012;28;20448;-57
2021/03/11 02:22:35;;;;;;;33.50;20.13;;;6.10;1.00;;;;;;5087787;28;20433;-58
2021/03/11 02:25:39;;;;;;;33.30;20.57;;;6.20;1.00;;;;;;5078514;28;20779;-57
2021/03/11 02:28:18;;;;;;;33.80;21.70;;;6.20;1.00;;;;;;5081374;28;20444;-58
2021/03/11 02:30:45;;;;;;;30.37;20.20;;;6.20;1.00;;;;;;5093198;28;20424;-62
2021/03/11 02:33:13;;;;;;;39.10;21.63;;;6.20;1.00;;;;;;5087573;28;20922;-58
2021/03/11 02:35:41;;;;;;;29.60;19.67;;;6.30;1.00;;;;;;5081733;28;20509;-57
2021/03/11 02:38:10;;;;;;;30.93;19.53;;;6.20;1.00;;;;;;5081094;28;20449;-57
2021/03/11 02:40:37;;;;;;;35.33;21.63;;;6.30;1.00;;;;;;5073850;28;20468;-57
2021/03/11 02:43:08;;;;;;;34.87;21.50;;;6.30;1.00;;;;;;5072549;28;20449;-58
2021/03/11 02:45:34;;;;;;;31.10;21.47;;;6.30;1.00;;;;;;5072289;28;20963;-57
2021/03/11 02:48:03;;;;;;;35.70;21.00;;;6.40;1.00;;;;;;5080183;28;20487;-56
2021/03/11 02:50:30;;;;;;;34.70;20.67;;;6.30;1.00;;;;;;5079026;28;20429;-57
2021/03/11 02:52:57;;;;;;;30.93;20.03;;;6.30;1.00;;;;;;5086566;28;20441;-57
2021/03/11 02:55:25;;;;;;;34.03;20.67;;;6.30;1.00;;;;;;5076587;28;21011;-56
2021/03/11 02:57:52;;;;;;;35.20;21.67;;;6.40;1.00;;;;;;5076376;28;20446;-58
2021/03/11 03:00:19;;;;;;;35.80;22.57;;;6.40;1.00;;;;;;5080286;28;20509;-57
2021/03/11 03:02:46;;;;;;;33.07;20.93;;;6.40;1.00;;;;;;5082276;28;20807;-57
2021/03/11 03:05:16;;;;;;;34.80;22.10;;;6.50;1.00;;;;;;5071848;28;20815;-57
2021/03/11 03:07:46;;;;;;;36.37;21.97;;;6.50;1.00;;;;;;5077224;28;20572;-57
2021/03/11 03:10:14;;;;;;;35.97;22.47;;;6.50;1.00;;;;;;5076567;28;20440;-59
2021/03/11 03:12:41;;;;;;;32.03;20.33;;;6.40;1.00;;;;;;5089242;28;20449;-58
2021/03/11 03:15:08;;;;;;;31.90;20.60;;;6.50;1.00;;;;;;5079527;28;20645;-57
2021/03/11 03:17:34;;;;;;;35.63;22.07;;;6.50;1.00;;;;;;5079390;28;20479;-57
2021/03/11 03:20:05;;;;;;;31.70;20.80;;;6.60;1.00;;;;;;5071694;28;20544;-59
2021/03/11 03:22:31;;;;;;;36.37;22.37;;;6.70;1.00;;;;;;5070803;28;20436;-58
2021/03/11 03:24:57;;;;;;;34.30;22.10;;;6.80;1.00;;;;;;5074353;28;20473;-57
2021/03/11 03:27:22;;;;;;;33.73;21.07;;;6.80;1.00;;;;;;5071479;28;20473;-58
2021/03/11 03:29:49;;;;;;;32.33;19.80;;;6.70;1.00;;;;;;5078818;28;20203;-58
2021/03/11 03:32:14;;;;;;;36.27;20.90;;;6.80;1.00;;;;;;5074132;28;20178;-58
2021/03/11 03:34:40;;;;;;;30.17;19.90;;;6.80;1.00;;;;;;5076671;28;20449;-59
2021/03/11 03:37:06;;;;;;;29.70;19.73;;;6.90;1.00;;;;;;5077617;28;20183;-57
2021/03/11 03:39:33;;;;;;;32.80;20.60;;;6.80;1.00;;;;;;5084849;28;20243;-58
2021/03/11 03:41:59;;;;;;;31.47;20.27;;;6.80;1.00;;;;;;5088606;28;21022;-59
2021/03/11 03:44:29;;;;;;;36.90;20.30;;;6.80;1.00;;;;;;5075562;28;20869;-58
2021/03/11 03:46:56;;;;;;;34.07;20.10;;;6.90;1.00;;;;;;5073874;28;20493;-58
2021/03/11 03:49:23;;;;;;;33.77;20.60;;;6.90;1.00;;;;;;5075828;28;20456;-57
2021/03/11 03:51:53;;;;;;;30.73;19.43;;;6.90;1.00;;;;;;5079826;28;20472;-57
2021/03/11 03:54:26;;;;;;;38.80;21.97;;;6.90;1.00;;;;;;5079647;28;20441;-58
2021/03/11 03:57:03;;;;;;;29.73;20.43;;;6.90;1.00;;;;;;5089068;28;20478;-57
2021/03/11 03:59:35;;;;;;;32.50;19.77;;;6.90;1.00;;;;;;5071477;28;20455;-59
2021/03/11 04:02:05;;;;;;;32.03;20.53;;;7.00;1.00;;;;;;5082827;28;20536;-59
2021/03/11 04:04:38;;;;;;;32.87;20.30;;;7.00;1.00;;;;;;5080707;28;20442;-59
2021/03/11 04:07:07;;;;;;;30.63;19.40;;;6.90;1.00;;;;;;5071335;28;20473;-57
2021/03/11 04:09:33;;;;;;;35.40;21.77;;;7.00;1.00;;;;;;5075281;28;20436;-58
2021/03/11 04:11:59;;;;;;;31.30;20.60;;;7.00;1.00;;;;;;5079124;28;20496;-58
2021/03/11 04:14:25;;;;;;;30.13;18.43;;;7.00;1.00;;;;;;5070764;28;20208;-57
2021/03/11 04:16:52;;;;;;;30.07;19.70;;;7.10;1.00;;;;;;5071802;28;20433;-58
2021/03/11 04:19:18;;;;;;;30.23;18.73;;;7.10;1.00;;;;;;5082271;28;20444;-57
2021/03/11 04:21:46;;;;;;;31.07;18.57;;;7.20;1.00;;;;;;5070733;28;20442;-57
2021/03/11 04:24:12;;;;;;;28.70;18.70;;;7.20;1.00;;;;;;5076104;28;20874;-57
2021/03/11 04:26:40;;;;;;;30.43;18.03;;;7.20;1.00;;;;;;5074220;28;20465;-58
2021/03/11 04:29:06;;;;;;;27.97;18.10;;;7.40;1.00;;;;;;5070631;28;20880;-57
2021/03/11 04:31:33;;;;;;;33.10;19.20;;;7.40;1.00;;;;;;5070348;28;20432;-58
2021/03/11 04:33:59;;;;;;;30.93;20.50;;;7.40;1.00;;;;;;5085651;28;20434;-58
2021/03/11 04:36:26;;;;;;;35.27;22.07;;;7.40;1.00;;;;;;5080566;28;20446;-58
2021/03/11 04:38:53;;;;;;;31.73;20.30;;;7.40;1.00;;;;;;5070876;28;20441;-57
2021/03/11 04:41:20;;;;;;;33.17;21.03;;;7.30;1.00;;;;;;5088766;28;20440;-58
2021/03/11 04:43:46;;;;;;;31.93;21.20;;;8.40;1.00;;;;;;5085003;28;21001;-58
2021/03/11 04:46:13;;;;;;;36.80;20.50;;;7.20;1.00;;;;;;5074292;28;20457;-59
2021/03/11 04:48:39;;;;;;;34.93;23.27;;;7.10;1.00;;;;;;5084529;28;20489;-58
2021/03/11 04:51:06;;;;;;;37.53;21.50;;;7.10;1.00;;;;;;5090943;28;20428;-58
2021/03/11 04:53:33;;;;;;;37.37;22.70;;;7.00;1.00;;;;;;5077870;28;20436;-57
2021/03/11 04:55:59;;;;;;;34.13;21.77;;;7.00;1.00;;;;;;5071006;28;20446;-59
2021/03/11 04:58:25;;;;;;;33.10;21.30;;;6.90;1.00;;;;;;5076251;28;20440;-57
2021/03/11 05:00:54;;;;;;;33.13;21.40;;;6.90;1.00;;;;;;5069768;28;20537;-59
2021/03/11 05:03:20;;;;;;;33.43;20.63;;;6.80;1.00;;;;;;5069582;28;20457;-58
2021/03/11 05:05:45;;;;;;;41.50;24.23;;;6.80;1.00;;;;;;5072509;28;20457;-59
2021/03/11 05:08:12;;;;;;;37.67;22.70;;;6.70;1.00;;;;;;5076049;28;20497;-56
2021/03/11 05:10:38;;;;;;;40.17;22.37;;;6.70;1.00;;;;;;5076868;28;20172;-57
2021/03/11 05:13:04;;;;;;;35.27;22.60;;;6.70;1.00;;;;;;5068813;28;20433;-56
2021/03/11 05:15:30;;;;;;;35.57;22.43;;;6.70;1.00;;;;;;5069797;28;20468;-58
2021/03/11 05:17:57;;;;;;;35.17;21.97;;;6.60;1.00;;;;;;5069443;28;20448;-58
2021/03/11 05:20:25;;;;;;;34.00;21.87;;;6.70;1.00;;;;;;5079607;28;20448;-59
2021/03/11 05:22:51;;;;;;;40.43;23.60;;;6.80;1.00;;;;;;5088662;28;20479;-59
2021/03/11 05:25:16;;;;;;;34.40;22.87;;;6.60;1.00;;;;;;5075480;28;20603;-59
2021/03/11 05:27:42;;;;;;;34.67;22.87;;;6.60;1.00;;;;;;5069331;28;20528;-57
2021/03/11 05:30:11;;;;;;;39.60;22.93;;;6.60;1.00;;;;;;5070131;28;20258;-55
2021/03/11 05:32:36;;;;;;;38.93;24.53;;;6.60;1.00;;;;;;5083369;28;20683;-55
2021/03/11 05:35:03;;;;;;;39.50;23.87;;;6.50;1.00;;;;;;5087731;28;20440;-55
2021/03/11 05:37:29;;;;;;;34.60;23.43;;;6.40;1.00;;;;;;5071326;28;20383;-56
2021/03/11 05:39:57;;;;;;;34.23;21.40;;;6.40;1.00;;;;;;5070125;28;20935;-55
2021/03/11 05:42:23;;;;;;;29.87;19.97;;;6.30;1.00;;;;;;5086447;28;20464;-56
2021/03/11 05:44:51;;;;;;;34.80;21.70;;;6.40;1.00;;;;;;5088228;28;20443;-54
2021/03/11 05:47:17;;;;;;;36.93;21.10;;;6.40;1.00;;;;;;5068354;28;20487;-54
2021/03/11 05:49:43;;;;;;;30.70;20.80;;;6.50;1.00;;;;;;5069557;28;20525;-55
2021/03/11 05:52:10;;;;;;;34.93;20.83;;;6.40;1.00;;;;;;5072725;28;20513;-56
2021/03/11 05:54:36;;;;;;;35.67;21.10;;;6.40;1.00;;;;;;5073583;28;20187;-55
2021/03/11 05:57:03;;;;;;;29.80;19.63;;;6.40;1.00;;;;;;5076533;28;20497;-54
2021/03/11 05:59:29;;;;;;;31.60;21.30;;;6.40;1.00;;;;;;5075861;28;20845;-54
2021/03/11 06:01:57;;;;;;;29.83;20.10;;;6.40;1.00;;;;;;5077710;28;20441;-54
2021/03/11 06:04:22;;;;;;;26.73;18.43;;;6.50;1.00;;;;;;5086735;28;20183;-54
2021/03/11 06:06:49;;;;;;;31.03;19.17;;;6.60;1.00;;;;;;5078753;28;20464;-54
2021/03/11 06:09:17;;;;;;;30.13;19.63;;;6.60;1.00;;;;;;5073334;28;20184;-54
2021/03/11 06:11:44;;;;;;;30.63;19.80;;;6.60;1.00;;;;;;5091376;28;20920;-55
2021/03/11 06:14:12;;;;;;;31.10;20.20;;;6.50;1.00;;;;;;5072261;28;20436;-55
2021/03/11 06:16:45;;;;;;;31.23;19.80;;;6.50;1.00;;;;;;5072912;28;20442;-55
2021/03/11 06:19:11;;;;;;;31.70;21.27;;;6.50;1.00;;;;;;5073383;28;20441;-56
2021/03/11 06:21:36;;;;;;;29.77;19.07;;;6.50;1.00;;;;;;5094019;28;20949;-54
2021/03/11 06:24:02;;;;;;;33.13;21.97;;;;;;;;;;5086987;28;20237;-53
2021/03/11 06:26:28;;;;;;;31.57;19.50;;;6.50;1.00;;;;;;5082314;28;20207;-55
2021/03/11 06:28:54;;;;;;;29.77;18.83;;;6.50;1.00;;;;;;5072875;28;20442;-54
2021/03/11 06:31:28;;;;;;;28.00;19.50;;;6.50;1.00;;;;;;5070268;28;20640;-54
2021/03/11 06:33:56;;;;;;;27.67;19.33;;;6.60;1.00;;;;;;5071608;28;20444;-55
2021/03/11 06:36:24;;;;;;;32.50;18.80;;;6.70;1.00;;;;;;5074400;28;20454;-55
2021/03/11 06:38:51;;;;;;;29.97;18.87;;;6.70;1.00;;;;;;5073529;28;20449;-56
2021/03/11 06:41:16;;;;;;;28.33;18.63;;;6.70;1.00;;;;;;5073178;28;20487;-55
2021/03/11 06:43:58;;;;;;;27.00;18.17;;;6.80;1.00;;;;;;5069751;28;20449;-56
2021/03/11 06:46:26;;;;;;;28.93;19.00;;;6.60;1.00;;;;;;5070552;28;20276;-56
2021/03/11 06:49:08;;;;;;;30.90;19.13;;;6.50;1.00;;;;;;5071906;28;20469;-54
2021/03/11 06:51:34;;;;;;;27.03;17.67;;;6.50;1.00;;;;;;5070811;28;20430;-55
2021/03/11 06:54:01;;;;;;;31.50;20.20;;;6.50;1.00;;;;;;5072348;28;20544;-56
2021/03/11 06:56:27;;;;;;;26.73;18.63;;;6.60;1.00;;;;;;5072545;28;20437;-54
2021/03/11 06:59:02;;;;;;;31.07;20.00;;;6.60;1.00;;;;;;5071139;28;20445;-56
2021/03/11 07:01:30;;;;;;;33.33;20.90;;;6.50;1.00;;;;;;5071882;28;20530;-56
2021/03/11 07:03:58;;;;;;;30.53;19.90;;;6.60;1.00;;;;;;5052785;28;20441;-55
2021/03/11 07:06:29;;;;;;;35.13;21.20;;;6.50;1.00;;;;;;5074639;28;20463;-55
2021/03/11 07:08:56;;;;;;;32.33;20.63;;;;;;;;;;5071619;28;20460;-55
2021/03/11 07:11:22;;;;;;;32.07;20.87;;;6.50;1.00;;;;;;5073487;28;20539;-55
2021/03/11 07:13:48;;;;;;;37.00;21.20;;;6.50;1.00;;;;;;5067768;28;20452;-55
2021/03/11 07:16:16;;;;;;;30.30;20.30;;;6.40;1.00;;;;;;5072653;28;20449;-55
2021/03/11 07:18:42;;;;;;;34.50;22.33;;;6.40;1.00;;;;;;5088398;28;20441;-56
2021/03/11 07:21:09;;;;;;;34.10;22.00;;;6.50;1.00;;;;;;5073674;28;20449;-55
2021/03/11 07:23:48;;;;;;;32.37;21.73;;;6.50;1.00;;;;;;5072646;28;20535;-55
2021/03/11 07:26:15;;;;;;;38.43;22.90;;;6.50;1.00;;;;;;5069926;28;20512;-54
2021/03/11 07:28:41;;;;;;;34.93;22.10;;;6.50;1.00;;;;;;5076490;28;20453;-54
2021/03/11 07:31:06;;;;;;;34.50;22.17;;;6.40;1.00;;;;;;5080662;28;20437;-55
2021/03/11 07:33:37;;;;;;;37.17;23.17;;;6.40;1.00;;;;;;5079380;28;20253;-54
2021/03/11 07:36:08;;;;;;;32.87;21.13;;;6.40;1.00;;;;;;5072242;28;20226;-56
2021/03/11 07:38:35;;;;;;;32.57;21.07;;;6.50;1.00;;;;;;5071676;28;20769;-56
2021/03/11 07:41:04;;;;;;;32.20;20.63;;;6.50;1.00;;;;;;5083375;28;20502;-56
2021/03/11 07:43:31;;;;;;;31.87;21.30;;;6.60;1.00;;;;;;5071412;28;20998;-54
2021/03/11 07:46:00;;;;;;;33.13;20.67;;;6.70;1.00;;;;;;5077346;28;20457;-57
2021/03/11 07:48:26;;;;;;;30.70;22.07;;;6.70;1.00;;;;;;5071598;28;20442;-55
2021/03/11 07:50:55;;;;;;;31.47;19.63;;;6.70;1.00;;;;;;5071855;28;20532;-54
2021/03/11 07:53:23;;;;;;;34.20;20.50;;;6.70;1.00;;;;;;5071821;28;20183;-56
2021/03/11 07:55:49;;;;;;;35.77;20.87;;;6.70;1.00;;;;;;5075383;28;20950;-56
2021/03/11 07:58:20;;;;;;;29.50;20.27;;;6.80;1.00;;;;;;5068887;28;20441;-56
2021/03/11 08:00:46;;;;;;;33.77;19.77;;;6.70;1.00;;;;;;5084454;28;20430;-55
2021/03/11 08:03:30;;;;;;;31.53;19.73;;;6.70;1.00;;;;;;5075805;28;20787;-57
2021/03/11 08:06:26;;;;;;;34.87;21.70;;;6.70;1.00;;;;;;5071370;28;20199;-55
2021/03/11 08:08:52;;;;;;;29.37;19.40;;;6.70;1.00;;;;;;5090175;28;20478;-55
2021/03/11 08:11:32;;;;;;;27.63;19.60;;;6.90;1.00;;;;;;5072457;28;20449;-57
2021/03/11 08:14:21;;;;;;;31.90;20.13;;;6.90;1.00;;;;;;5069101;28;20437;-56
2021/03/11 08:16:47;;;;;;;32.53;19.23;;;8.60;1.00;;;;;;5071324;28;20438;-56
2021/03/11 08:19:35;;;;;;;30.17;20.80;;;7.00;1.00;;;;;;5076941;28;20447;-56
2021/03/11 08:22:01;;;;;;;29.00;17.40;;;7.00;1.00;;;;;;5082513;28;20440;-56
2021/03/11 08:24:46;;;;;;;31.50;19.50;;;7.00;1.00;;;;;;5070598;28;20982;-57
2021/03/11 08:27:30;;;;;;;29.27;19.10;;;7.10;1.00;;;;;;5069538;28;20466;-57
2021/03/11 08:29:56;;;;;;;29.63;19.80;;;7.10;1.00;;;;;;5070707;28;20966;-55
2021/03/11 08:32:47;;;;;;;30.97;19.80;;;7.10;1.00;;;;;;5065173;28;20483;-55
2021/03/11 08:35:28;;;;;;;30.60;19.60;;;7.10;1.00;;;;;;5070726;28;20819;-55
2021/03/11 08:38:00;;;;;;;28.60;18.90;;;7.30;1.00;;;;;;5071187;28;20444;-55
2021/03/11 08:40:38;;;;;;;28.00;19.00;;;7.30;1.00;;;;;;5071049;28;20458;-63
2021/03/11 08:43:04;;;;;;;24.43;18.77;;;7.40;1.00;;;;;;5068773;28;20434;-57
2021/03/11 08:45:36;;;;;;;29.10;18.63;;;7.40;1.00;;;;;;5069979;28;21003;-58
2021/03/11 08:48:17;;;;;;;27.10;18.57;;;7.50;1.00;;;;;;5070405;28;20187;-56
2021/03/11 08:50:48;;;;;;;25.23;16.87;;;7.50;1.00;;;;;;5070402;28;20440;-57
2021/03/11 08:53:44;;;;;;;26.40;16.43;;;7.50;1.00;;;;;;5069555;28;20465;-57
2021/03/11 08:56:16;;;;;;;29.50;19.20;;;7.50;1.00;;;;;;5081604;28;20512;-56
2021/03/11 08:58:59;;;;;;;23.93;17.60;;;7.40;1.00;;;;;;5072181;28;20520;-60
2021/03/11 09:01:28;;;;;;;23.27;17.10;;;7.30;1.00;;;;;;5070214;28;20440;-56
2021/03/11 09:03:54;;;;;;;27.93;18.10;;;7.50;1.00;;;;;;5073542;28;20457;-56
2021/03/11 09:06:39;;;;;;;25.93;18.90;;;7.60;1.00;;;;;;5080177;28;20468;-57
2021/03/11 09:09:05;;;;;;;29.80;19.30;;;7.60;1.00;;;;;;5077256;28;20840;-57
2021/03/11 09:11:31;;;;;;;27.80;18.67;;;7.70;1.00;;;;;;5078994;28;20524;-58
2021/03/11 09:13:57;;;;;;;26.60;18.60;;;7.70;1.00;;;;;;5075819;28;20176;-57
2021/03/11 09:16:24;;;;;;;25.80;18.00;;;7.70;1.00;;;;;;5077892;28;20946;-59
2021/03/11 09:18:58;;;;;;;27.53;18.30;;;7.80;1.00;;;;;;5080628;28;20480;-62
2021/03/11 09:21:44;;;;;;;25.30;17.97;;;7.80;1.00;;;;;;5070727;28;20446;-63
2021/03/11 09:24:20;;;;;;;25.00;17.20;;;7.80;1.00;;;;;;5086902;28;20995;-63
2021/03/11 09:26:46;;;;;;;29.10;18.50;;;7.90;1.00;;;;;;5077520;28;20465;-63
2021/03/11 09:29:13;;;;;;;26.63;17.57;;;7.90;1.00;;;;;;5082374;28;20456;-63
2021/03/11 09:31:39;;;;;;;25.67;18.03;;;8.00;1.00;;;;;;5083151;28;20434;-63
2021/03/11 09:34:06;;;;;;;28.13;20.00;;;8.00;1.00;;;;;;5086437;28;20430;-64
2021/03/11 09:36:32;;;;;;;23.80;17.30;;;8.00;1.00;;;;;;5082060;28;20443;-62
2021/03/11 09:39:07;;;;;;;26.40;17.63;;;8.20;1.00;;;;;;5084492;28;20918;-62
2021/03/11 09:41:33;;;;;;;28.20;19.40;;;8.20;1.00;;;;;;5076748;28;20942;-63
2021/03/11 09:44:03;;;;;;;33.27;19.40;;;8.20;1.00;;;;;;5084721;28;20972;-63
2021/03/11 09:46:29;;;;;;;30.33;19.10;;;8.20;1.00;;;;;;5082420;28;20543;-65
2021/03/11 09:48:58;;;;;;;34.93;21.13;;;8.20;1.00;;;;;;5079722;28;20448;-65
2021/03/11 09:51:29;;;;;;;28.43;20.83;;;8.30;1.00;;;;;;5080796;28;20173;-65
2021/03/11 09:53:58;;;;;;;29.60;19.53;;;8.30;1.00;;;;;;5081546;28;20441;-63
2021/03/11 09:56:25;;;;;;;28.97;19.53;;;8.40;1.00;;;;;;5079123;28;20963;-64
2021/03/11 09:59:03;;;;;;;29.97;19.37;;;8.40;1.00;;;;;;5086564;28;20645;-66
2021/03/11 10:01:33;;;;;;;29.20;21.47;;;8.40;1.00;;;;;;5082448;28;20450;-64
2021/03/11 10:04:00;;;;;;;27.73;20.30;;;8.50;1.00;;;;;;5083606;28;20448;-63
2021/03/11 10:06:27;;;;;;;33.80;20.80;;;9.30;1.00;;;;;;5085274;28;20503;-63
2021/03/11 10:08:59;;;;;;;31.80;20.17;;;8.60;1.00;;;;;;5086406;28;20443;-62
2021/03/11 10:11:33;;;;;;;27.90;18.60;;;8.70;1.00;;;;;;5081194;28;20517;-63
2021/03/11 10:14:02;;;;;;;26.30;20.47;;;8.70;1.00;;;;;;5081913;28;20438;-63
2021/03/11 10:16:30;;;;;;;27.20;20.00;;;8.60;1.00;;;;;;5080685;28;20440;-64
2021/03/11 10:19:12;;;;;;;29.00;19.57;;;8.70;1.00;;;;;;5076424;28;20430;-63
2021/03/11 10:21:58;;;;;;;36.67;20.23;;;8.80;1.00;;;;;;5074674;28;20519;-64
2021/03/11 10:24:31;;;;;;;29.60;19.77;;;9.00;1.00;;;;;;5071093;28;20818;-64
2021/03/11 10:26:57;;;;;;;32.17;22.23;;;9.00;1.00;;;;;;5079231;28;20478;-65
2021/03/11 10:29:27;;;;;;;36.90;24.10;;;9.20;1.00;;;;;;5073762;28;20528;-64
2021/03/11 10:32:03;;;;;;;40.50;27.07;;;9.50;1.00;;;;;;5074364;28;20672;-65
2021/03/11 10:34:29;;;;;;;40.40;28.23;;;9.50;1.00;;;;;;5079096;28;20432;-65
2021/03/11 10:36:57;;;;;;;45.33;32.07;;;9.60;1.00;;;;;;5084016;28;20470;-64
2021/03/11 10:39:24;;;;;;;52.70;35.70;;;9.50;1.00;;;;;;5077584;28;20197;-63
2021/03/11 10:42:00;;;;;;;52.00;34.60;;;9.60;1.00;;;;;;5070442;28;20458;-64
2021/03/11 10:44:26;;;;;;;48.77;34.83;;;9.80;1.00;;;;;;5071944;28;20462;-64
2021/03/11 10:46:52;;;;;;;49.77;34.93;;;9.60;1.00;;;;;;5078343;28;20830;-63
2021/03/11 10:49:34;;;;;;;49.10;34.03;;;9.60;1.00;;;;;;5080617;28;20984;-58
2021/03/11 10:51:59;;;;;;;43.67;32.23;;;9.60;1.00;;;;;;5079999;28;20426;-59
2021/03/11 10:54:30;;;;;;;51.10;34.40;;;9.60;1.00;;;;;;5079269;28;20488;-60
2021/03/11 10:57:25;;;;;;;46.50;35.87;;;9.50;1.00;;;;;;5071428;28;20192;-59
2021/03/11 10:59:52;;;;;;;54.37;40.47;;;9.40;1.00;;;;;;5060300;28;20580;-59
2021/03/11 11:02:22;;;;;;;54.97;41.50;;;9.40;1.00;;;;;;5071833;28;20534;-63
2021/03/11 11:04:48;;;;;;;58.87;42.40;;;9.30;1.00;;;;;;5070688;28;20791;-64
2021/03/11 11:07:14;;;;;;;56.07;43.47;;;9.20;1.00;;;;;;5070242;28;20470;-64
2021/03/11 11:09:40;;;;;;;52.77;35.90;;;9.00;1.00;;;;;;5071762;28;20454;-66
2021/03/11 11:12:08;;;;;;;48.20;33.43;;;9.00;1.00;;;;;;5069812;28;20449;-64
2021/03/11 11:14:34;;;;;;;42.97;28.90;;;8.90;1.00;;;;;;5071652;28;20174;-65
2021/03/11 11:17:00;;;;;;;33.33;25.47;;;8.80;1.00;;;;;;5071286;28;20940;-65
2021/03/11 11:19:25;;;;;;;39.40;26.93;;;8.70;1.00;;;;;;5071546;28;20447;-64
2021/03/11 11:21:51;;;;;;;36.80;24.30;;;8.70;1.00;;;;;;5071558;28;20174;-63
2021/03/11 11:24:16;;;;;;;35.33;25.23;;;8.60;1.00;;;;;;5071451;28;20585;-63
2021/03/11 11:26:42;;;;;;;34.40;22.97;;;8.70;1.00;;;;;;5071556;28;20214;-64
2021/03/11 11:29:08;;;;;;;34.60;24.87;;;8.70;1.00;;;;;;5071548;28;20291;-65
2021/03/11 11:31:34;;;;;;;32.77;25.00;;;8.80;1.00;;;;;;5071442;28;20439;-66
2021/03/11 11:34:00;;;;;;;36.20;26.90;;;8.90;1.00;;;;;;5068697;28;20215;-64
2021/03/11 11:36:25;;;;;;;33.33;24.27;;;8.90;1.00;;;;;;5068256;28;20710;-64
2021/03/11 11:38:51;;;;;;;46.40;31.73;;;8.70;1.00;;;;;;5069439;28;20192;-65
2021/03/11 11:41:18;;;;;;;48.87;32.40;;;8.90;1.00;;;;;;5067930;28;20603;-64
2021/03/11 11:43:44;;;;;;;57.17;38.00;;;8.90;1.00;;;;;;5070100;28;20442;-63
2021/03/11 11:46:10;;;;;;;45.97;31.03;;;8.80;1.00;;;;;;5068840;28;20458;-65
2021/03/11 11:48:36;;;;;;;44.93;31.30;;;8.70;1.00;;;;;;5070357;28;20444;-64
2021/03/11 11:51:01;;;;;;;45.57;32.90;;;8.80;1.00;;;;;;5070991;28;20957;-65
2021/03/11 11:53:27;;;;;;;47.67;31.83;;;8.80;1.00;;;;;;5070903;28;20223;-64
2021/03/11 11:55:52;;;;;;;40.73;30.60;;;8.80;1.00;;;;;;5070787;28;20289;-64
2021/03/11 11:58:18;;;;;;;36.70;28.00;;;9.00;1.00;;;;;;5070664;28;20200;-65
2021/03/11 12:00:45;;;;;;;42.17;30.77;;;8.90;1.00;;;;;;5070172;28;20183;-67
2021/03/11 12:03:11;;;;;;;40.30;27.40;;;9.00;1.00;;;;;;5068075;28;20456;-63
2021/03/11 12:05:37;;;;;;;40.80;28.80;;;9.20;1.00;;;;;;5068827;28;20968;-65
2021/03/11 12:08:03;;;;;;;36.47;27.77;;;9.30;1.00;;;;;;5070610;28;20626;-65
2021/03/11 12:10:29;;;;;;;37.60;27.40;;;9.60;1.00;;;;;;5070160;28;20181;-64
2021/03/11 12:12:54;;;;;;;40.53;29.10;;;9.80;1.00;;;;;;5070131;28;20439;-65
2021/03/11 12:15:20;;;;;;;45.33;29.97;;;10.00;1.00;;;;;;5090850;28;20173;-64
2021/03/11 12:17:46;;;;;;;42.77;29.60;;;10.20;1.00;;;;;;5079187;28;20605;-65
2021/03/11 12:20:12;;;;;;;34.73;26.53;;;10.30;1.00;;;;;;5070322;28;20281;-64
2021/03/11 12:22:38;;;;;;;39.83;27.57;;;10.20;1.00;;;;;;5069202;28;20223;-64
2021/03/11 12:25:04;;;;;;;36.53;28.10;;;10.10;1.00;;;;;;5069793;28;20542;-63
2021/03/11 12:27:30;;;;;;;40.23;28.97;;;9.80;1.00;;;;;;5080638;28;20281;-66
2021/03/11 12:29:56;;;;;;;37.53;26.70;;;9.70;1.00;;;;;;5090430;28;20925;-64
2021/03/11 12:32:22;;;;;;;35.83;26.90;;;9.60;1.00;;;;;;5084708;28;20183;-64
2021/03/11 12:34:48;;;;;;;37.00;25.43;;;9.60;1.00;;;;;;5073971;28;20194;-63
2021/03/11 12:37:14;;;;;;;35.40;25.00;;;9.80;1.00;;;;;;5088866;28;20318;-64
2021/03/11 12:39:40;;;;;;;37.43;24.83;;;9.90;1.00;;;;;;5090655;28;20445;-65
2021/03/11 12:42:07;;;;;;;29.90;23.40;;;10.00;1.00;;;;;;5071857;28;20581;-63
2021/03/11 12:44:33;;;;;;;32.83;24.50;;;9.90;1.00;;;;;;5070373;28;20533;-64
2021/03/11 12:46:59;;;;;;;31.73;24.10;;;9.80;1.00;;;;;;5070369;28;20796;-66
2021/03/11 12:49:25;;;;;;;31.67;23.77;;;9.90;1.00;;;;;;5070060;28;20449;-63
2021/03/11 12:51:50;;;;;;;31.83;23.40;;;9.90;1.00;;;;;;5070386;28;20185;-64
2021/03/11 12:54:16;;;;;;;29.73;21.67;;;10.00;1.00;;;;;;5070565;28;20201;-64